sensor_id;sensor_type;location;lat;lon;timestamp;pressure;altitude;pressure_sealevel;temperature;humidity
73422;BME280;61637;47.760;-122.022;2024-02-21T00:00:01;101354.65269999999;;;11.3;92.0
73422;BME280;61637;47.760;-122.022;2024-02-21T00:02:00;101354.65269999999;;;11.3;92.0
73422;BME280;61637;47.760;-122.022;2024-02-21T00:04:01;101354.65269999999;;;11.2;92.0
73422;BME280;61637;47.760;-122.022;2024-02-21T00:06:01;101354.65269999999;;;11.2;92.0
73422;BME280;61637;47.760;-122.022;2024-02-21T00:08:01;101354.65269999999;;;11.2;92.0
73422;BME280;61637;47.760;-122.022;2024-02-21T00:10:00;101354.65269999999;;;11.2;91.0
73422;BME280;61637;47.760;-122.022;2024-02-21T00:12:00;101354.65269999999;;;11.2;92.0
73422;BME280;61637;47.760;-122.022;2024-02-21T00:14:00;101354.65269999999;;;11.2;92.0
73422;BME280;61637;47.760;-122.022;2024-02-21T00:16:01;101354.65269999999;;;11.2;92.0
73422;BME280;61637;47.760;-122.022;2024-02-21T00:18:01;101354.65269999999;;;11.2;93.0
73422;BME280;61637;47.760;-122.022;2024-02-21T00:20:00;101354.65269999999;;;11.2;91.0
73422;BME280;61637;47.760;-122.022;2024-02-21T00:22:01;101354.65269999999;;;11.2;90.0
73422;BME280;61637;47.760;-122.022;2024-02-21T00:24:00;101354.65269999999;;;11.1;88.0
73422;BME280;61637;47.760;-122.022;2024-02-21T00:26:00;101354.65269999999;;;11.2;89.0
73422;BME280;61637;47.760;-122.022;2024-02-21T00:28:01;101320.7888;;;11.2;90.0
73422;BME280;61637;47.760;-122.022;2024-02-21T00:30:01;101354.65269999999;;;11.1;89.0
73422;BME280;61637;47.760;-122.022;2024-02-21T00:32:00;101354.65269999999;;;11.1;89.0
73422;BME280;61637;47.760;-122.022;2024-02-21T00:34:00;101354.65269999999;;;11.1;88.0
73422;BME280;61637;47.760;-122.022;2024-02-21T00:36:00;101354.65269999999;;;11.1;89.0
73422;BME280;61637;47.760;-122.022;2024-02-21T00:38:01;101320.7888;;;11.1;89.0
73422;BME280;61637;47.760;-122.022;2024-02-21T00:40:00;101354.65269999999;;;11.1;88.0
73422;BME280;61637;47.760;-122.022;2024-02-21T00:42:01;101320.7888;;;11.1;90.0
73422;BME280;61637;47.760;-122.022;2024-02-21T00:44:00;101320.7888;;;11.0;88.0
73422;BME280;61637;47.760;-122.022;2024-02-21T00:46:00;101354.65269999999;;;11.0;89.0
73422;BME280;61637;47.760;-122.022;2024-02-21T00:48:00;101320.7888;;;11.0;90.0
73422;BME280;61637;47.760;-122.022;2024-02-21T00:50:00;101354.65269999999;;;11.0;91.0
73422;BME280;61637;47.760;-122.022;2024-02-21T00:52:00;101354.65269999999;;;10.9;90.0
73422;BME280;61637;47.760;-122.022;2024-02-21T00:54:01;101320.7888;;;10.8;90.0
73422;BME280;61637;47.760;-122.022;2024-02-21T00:56:00;101320.7888;;;10.8;91.0
73422;BME280;61637;47.760;-122.022;2024-02-21T00:58:00;101320.7888;;;10.8;91.0
73422;BME280;61637;47.760;-122.022;2024-02-21T01:00:01;101320.7888;;;10.8;92.0
73422;BME280;61637;47.760;-122.022;2024-02-21T01:02:01;101320.7888;;;10.8;91.0
73422;BME280;61637;47.760;-122.022;2024-02-21T01:04:00;101320.7888;;;10.7;90.0
73422;BME280;61637;47.760;-122.022;2024-02-21T01:06:01;101320.7888;;;10.6;90.0
73422;BME280;61637;47.760;-122.022;2024-02-21T01:08:00;101320.7888;;;10.6;91.0
73422;BME280;61637;47.760;-122.022;2024-02-21T01:10:00;101320.7888;;;10.6;91.0
73422;BME280;61637;47.760;-122.022;2024-02-21T01:12:00;101320.7888;;;10.6;91.0
73422;BME280;61637;47.760;-122.022;2024-02-21T01:14:01;101320.7888;;;10.5;91.0
73422;BME280;61637;47.760;-122.022;2024-02-21T01:16:00;101320.7888;;;10.5;91.0
73422;BME280;61637;47.760;-122.022;2024-02-21T01:18:01;101320.7888;;;10.4;91.0
73422;BME280;61637;47.760;-122.022;2024-02-21T01:20:00;101320.7888;;;10.4;91.0
73422;BME280;61637;47.760;-122.022;2024-02-21T01:22:00;101320.7888;;;10.4;91.0
73422;BME280;61637;47.760;-122.022;2024-02-21T01:24:00;101320.7888;;;10.4;91.0
73422;BME280;61637;47.760;-122.022;2024-02-21T01:26:01;101320.7888;;;10.4;91.0
73422;BME280;61637;47.760;-122.022;2024-02-21T01:28:00;101320.7888;;;10.4;91.0
73422;BME280;61637;47.760;-122.022;2024-02-21T01:30:01;101320.7888;;;10.3;91.0
73422;BME280;61637;47.760;-122.022;2024-02-21T01:32:00;101320.7888;;;10.3;91.0
73422;BME280;61637;47.760;-122.022;2024-02-21T01:34:00;101320.7888;;;10.3;91.0
73422;BME280;61637;47.760;-122.022;2024-02-21T01:36:01;101320.7888;;;10.3;91.0
73422;BME280;61637;47.760;-122.022;2024-02-21T01:38:01;101320.7888;;;10.2;91.0
73422;BME280;61637;47.760;-122.022;2024-02-21T01:40:00;101320.7888;;;10.2;91.0
73422;BME280;61637;47.760;-122.022;2024-02-21T01:42:01;101320.7888;;;10.2;91.0
73422;BME280;61637;47.760;-122.022;2024-02-21T01:44:00;101320.7888;;;10.1;91.0
73422;BME280;61637;47.760;-122.022;2024-02-21T01:46:00;101320.7888;;;10.1;91.0
73422;BME280;61637;47.760;-122.022;2024-02-21T01:48:00;101320.7888;;;10.0;90.0
73422;BME280;61637;47.760;-122.022;2024-02-21T01:50:01;101320.7888;;;10.0;90.0
73422;BME280;61637;47.760;-122.022;2024-02-21T01:52:00;101320.7888;;;9.9;90.0
73422;BME280;61637;47.760;-122.022;2024-02-21T01:54:01;101320.7888;;;9.9;90.0
73422;BME280;61637;47.760;-122.022;2024-02-21T01:56:00;101320.7888;;;9.9;90.0
73422;BME280;61637;47.760;-122.022;2024-02-21T01:58:01;101320.7888;;;9.8;90.0
73422;BME280;61637;47.760;-122.022;2024-02-21T02:00:01;101320.7888;;;9.8;90.0
73422;BME280;61637;47.760;-122.022;2024-02-21T02:02:00;101320.7888;;;9.8;90.0
73422;BME280;61637;47.760;-122.022;2024-02-21T02:04:00;101320.7888;;;9.8;90.0
73422;BME280;61637;47.760;-122.022;2024-02-21T02:06:01;101320.7888;;;9.7;90.0
73422;BME280;61637;47.760;-122.022;2024-02-21T02:08:01;101320.7888;;;9.7;90.0
73422;BME280;61637;47.760;-122.022;2024-02-21T02:10:00;101354.65269999999;;;9.7;90.0
73422;BME280;61637;47.760;-122.022;2024-02-21T02:12:01;101354.65269999999;;;9.7;90.0
73422;BME280;61637;47.760;-122.022;2024-02-21T02:14:00;101320.7888;;;9.7;90.0
73422;BME280;61637;47.760;-122.022;2024-02-21T02:16:00;101320.7888;;;9.7;90.0
73422;BME280;61637;47.760;-122.022;2024-02-21T02:18:01;101354.65269999999;;;9.7;90.0
73422;BME280;61637;47.760;-122.022;2024-02-21T02:20:01;101320.7888;;;9.6;91.0
73422;BME280;61637;47.760;-122.022;2024-02-21T02:22:02;101354.65269999999;;;9.6;91.0
73422;BME280;61637;47.760;-122.022;2024-02-21T02:24:00;101320.7888;;;9.6;91.0
73422;BME280;61637;47.760;-122.022;2024-02-21T02:26:00;101354.65269999999;;;9.6;91.0
73422;BME280;61637;47.760;-122.022;2024-02-21T02:28:00;101354.65269999999;;;9.6;91.0
73422;BME280;61637;47.760;-122.022;2024-02-21T02:30:01;101354.65269999999;;;9.6;91.0
73422;BME280;61637;47.760;-122.022;2024-02-21T02:32:00;101354.65269999999;;;9.6;91.0
73422;BME280;61637;47.760;-122.022;2024-02-21T02:34:00;101354.65269999999;;;9.5;91.0
73422;BME280;61637;47.760;-122.022;2024-02-21T02:36:00;101354.65269999999;;;9.5;91.0
73422;BME280;61637;47.760;-122.022;2024-02-21T02:38:00;101354.65269999999;;;9.5;92.0
73422;BME280;61637;47.760;-122.022;2024-02-21T02:40:00;101354.65269999999;;;9.4;92.0
73422;BME280;61637;47.760;-122.022;2024-02-21T02:42:01;101354.65269999999;;;9.5;92.0
73422;BME280;61637;47.760;-122.022;2024-02-21T02:44:00;101354.65269999999;;;9.4;92.0
73422;BME280;61637;47.760;-122.022;2024-02-21T02:46:00;101354.65269999999;;;9.4;92.0
73422;BME280;61637;47.760;-122.022;2024-02-21T02:48:01;101354.65269999999;;;9.4;92.0
73422;BME280;61637;47.760;-122.022;2024-02-21T02:50:01;101354.65269999999;;;9.3;92.0
73422;BME280;61637;47.760;-122.022;2024-02-21T02:52:00;101354.65269999999;;;9.3;92.0
73422;BME280;61637;47.760;-122.022;2024-02-21T02:54:02;101354.65269999999;;;9.3;92.0
73422;BME280;61637;47.760;-122.022;2024-02-21T02:56:01;101354.65269999999;;;9.3;92.0
73422;BME280;61637;47.760;-122.022;2024-02-21T02:58:00;101354.65269999999;;;9.3;93.0
73422;BME280;61637;47.760;-122.022;2024-02-21T03:00:00;101354.65269999999;;;9.3;93.0
73422;BME280;61637;47.760;-122.022;2024-02-21T03:02:01;101354.65269999999;;;9.2;93.0
73422;BME280;61637;47.760;-122.022;2024-02-21T03:04:00;101354.65269999999;;;9.2;93.0
73422;BME280;61637;47.760;-122.022;2024-02-21T03:06:01;101354.65269999999;;;9.2;93.0
73422;BME280;61637;47.760;-122.022;2024-02-21T03:08:01;101354.65269999999;;;9.1;93.0
73422;BME280;61637;47.760;-122.022;2024-02-21T03:10:00;101354.65269999999;;;9.1;94.0
73422;BME280;61637;47.760;-122.022;2024-02-21T03:12:00;101354.65269999999;;;9.1;94.0
73422;BME280;61637;47.760;-122.022;2024-02-21T03:14:00;101354.65269999999;;;9.0;94.0
73422;BME280;61637;47.760;-122.022;2024-02-21T03:16:00;101354.65269999999;;;8.9;94.0
73422;BME280;61637;47.760;-122.022;2024-02-21T03:18:01;101354.65269999999;;;8.9;94.0
73422;BME280;61637;47.760;-122.022;2024-02-21T03:20:01;101354.65269999999;;;8.9;94.0
73422;BME280;61637;47.760;-122.022;2024-02-21T03:22:00;101354.65269999999;;;8.9;94.0
73422;BME280;61637;47.760;-122.022;2024-02-21T03:24:00;101354.65269999999;;;8.8;94.0
73422;BME280;61637;47.760;-122.022;2024-02-21T03:26:00;101354.65269999999;;;8.8;94.0
73422;BME280;61637;47.760;-122.022;2024-02-21T03:28:00;101354.65269999999;;;8.8;94.0
73422;BME280;61637;47.760;-122.022;2024-02-21T03:30:01;101354.65269999999;;;8.8;95.0
73422;BME280;61637;47.760;-122.022;2024-02-21T03:32:01;101354.65269999999;;;8.8;95.0
73422;BME280;61637;47.760;-122.022;2024-02-21T03:34:00;101354.65269999999;;;8.7;95.0
73422;BME280;61637;47.760;-122.022;2024-02-21T03:36:00;101354.65269999999;;;8.7;95.0
73422;BME280;61637;47.760;-122.022;2024-02-21T03:38:00;101354.65269999999;;;8.7;95.0
73422;BME280;61637;47.760;-122.022;2024-02-21T03:40:00;101354.65269999999;;;8.7;95.0
73422;BME280;61637;47.760;-122.022;2024-02-21T03:42:01;101354.65269999999;;;8.6;95.0
73422;BME280;61637;47.760;-122.022;2024-02-21T03:44:01;101354.65269999999;;;8.6;95.0
73422;BME280;61637;47.760;-122.022;2024-02-21T03:46:00;101320.7888;;;8.6;95.0
73422;BME280;61637;47.760;-122.022;2024-02-21T03:48:01;101320.7888;;;8.6;95.0
73422;BME280;61637;47.760;-122.022;2024-02-21T03:50:00;101320.7888;;;8.6;95.0
73422;BME280;61637;47.760;-122.022;2024-02-21T03:52:00;101320.7888;;;8.6;95.0
73422;BME280;61637;47.760;-122.022;2024-02-21T03:54:01;101320.7888;;;8.4;95.0
73422;BME280;61637;47.760;-122.022;2024-02-21T03:56:01;101320.7888;;;8.5;95.0
73422;BME280;61637;47.760;-122.022;2024-02-21T03:58:00;101320.7888;;;8.4;95.0
73422;BME280;61637;47.760;-122.022;2024-02-21T04:00:00;101320.7888;;;8.4;95.0
73422;BME280;61637;47.760;-122.022;2024-02-21T04:02:00;101320.7888;;;8.4;95.0
73422;BME280;61637;47.760;-122.022;2024-02-21T04:04:01;101320.7888;;;8.4;95.0
73422;BME280;61637;47.760;-122.022;2024-02-21T04:06:01;101320.7888;;;8.4;95.0
73422;BME280;61637;47.760;-122.022;2024-02-21T04:08:03;101320.7888;;;8.4;95.0
73422;BME280;61637;47.760;-122.022;2024-02-21T04:10:00;101286.9249;;;8.3;95.0
73422;BME280;61637;47.760;-122.022;2024-02-21T04:12:00;101286.9249;;;8.3;95.0
73422;BME280;61637;47.760;-122.022;2024-02-21T04:14:00;101286.9249;;;8.3;96.0
73422;BME280;61637;47.760;-122.022;2024-02-21T04:16:00;101286.9249;;;8.3;96.0
73422;BME280;61637;47.760;-122.022;2024-02-21T04:18:01;101286.9249;;;8.3;96.0
73422;BME280;61637;47.760;-122.022;2024-02-21T04:20:02;101286.9249;;;8.3;96.0
73422;BME280;61637;47.760;-122.022;2024-02-21T04:22:00;101286.9249;;;8.2;96.0
73422;BME280;61637;47.760;-122.022;2024-02-21T04:24:00;101286.9249;;;8.2;96.0
73422;BME280;61637;47.760;-122.022;2024-02-21T04:26:00;101286.9249;;;8.2;96.0
73422;BME280;61637;47.760;-122.022;2024-02-21T04:28:01;101286.9249;;;8.2;96.0
73422;BME280;61637;47.760;-122.022;2024-02-21T04:30:01;101286.9249;;;8.2;96.0
73422;BME280;61637;47.760;-122.022;2024-02-21T04:32:01;101286.9249;;;8.1;96.0
73422;BME280;61637;47.760;-122.022;2024-02-21T04:34:01;101286.9249;;;8.1;96.0
73422;BME280;61637;47.760;-122.022;2024-02-21T04:36:00;101286.9249;;;8.1;96.0
73422;BME280;61637;47.760;-122.022;2024-02-21T04:38:00;101286.9249;;;8.1;96.0
73422;BME280;61637;47.760;-122.022;2024-02-21T04:40:01;101286.9249;;;8.1;96.0
73422;BME280;61637;47.760;-122.022;2024-02-21T04:42:01;101286.9249;;;8.1;96.0
73422;BME280;61637;47.760;-122.022;2024-02-21T04:44:00;101286.9249;;;8.0;96.0
73422;BME280;61637;47.760;-122.022;2024-02-21T04:46:01;101286.9249;;;8.0;96.0
73422;BME280;61637;47.760;-122.022;2024-02-21T04:48:00;101286.9249;;;8.0;96.0
73422;BME280;61637;47.760;-122.022;2024-02-21T04:50:01;101286.9249;;;8.0;96.0
73422;BME280;61637;47.760;-122.022;2024-02-21T04:52:00;101286.9249;;;8.0;96.0
73422;BME280;61637;47.760;-122.022;2024-02-21T04:54:01;101286.9249;;;8.0;96.0
73422;BME280;61637;47.760;-122.022;2024-02-21T04:56:01;101286.9249;;;8.0;96.0
73422;BME280;61637;47.760;-122.022;2024-02-21T04:58:00;101286.9249;;;8.0;96.0
73422;BME280;61637;47.760;-122.022;2024-02-21T05:00:01;101286.9249;;;8.0;96.0
73422;BME280;61637;47.760;-122.022;2024-02-21T05:02:00;101286.9249;;;7.9;96.0
73422;BME280;61637;47.760;-122.022;2024-02-21T05:04:00;101286.9249;;;7.9;95.0
73422;BME280;61637;47.760;-122.022;2024-02-21T05:06:01;101286.9249;;;7.9;95.0
73422;BME280;61637;47.760;-122.022;2024-02-21T05:08:01;101286.9249;;;7.9;96.0
73422;BME280;61637;47.760;-122.022;2024-02-21T05:10:00;101286.9249;;;7.9;96.0
73422;BME280;61637;47.760;-122.022;2024-02-21T05:12:00;101286.9249;;;7.9;96.0
73422;BME280;61637;47.760;-122.022;2024-02-21T05:14:01;101286.9249;;;7.9;96.0
73422;BME280;61637;47.760;-122.022;2024-02-21T05:16:00;101286.9249;;;7.9;96.0
73422;BME280;61637;47.760;-122.022;2024-02-21T05:18:01;101320.7888;;;7.8;96.0
73422;BME280;61637;47.760;-122.022;2024-02-21T05:20:01;101286.9249;;;7.8;96.0
73422;BME280;61637;47.760;-122.022;2024-02-21T05:22:01;101286.9249;;;7.8;96.0
73422;BME280;61637;47.760;-122.022;2024-02-21T05:24:00;101286.9249;;;7.8;96.0
73422;BME280;61637;47.760;-122.022;2024-02-21T05:26:00;101286.9249;;;7.8;96.0
73422;BME280;61637;47.760;-122.022;2024-02-21T05:28:00;101286.9249;;;7.8;96.0
73422;BME280;61637;47.760;-122.022;2024-02-21T05:30:03;101286.9249;;;7.7;96.0
73422;BME280;61637;47.760;-122.022;2024-02-21T05:32:01;101286.9249;;;7.8;96.0
73422;BME280;61637;47.760;-122.022;2024-02-21T05:34:00;101286.9249;;;7.7;96.0
73422;BME280;61637;47.760;-122.022;2024-02-21T05:36:00;101286.9249;;;7.7;96.0
73422;BME280;61637;47.760;-122.022;2024-02-21T05:38:00;101286.9249;;;7.7;96.0
73422;BME280;61637;47.760;-122.022;2024-02-21T05:40:00;101286.9249;;;7.7;96.0
73422;BME280;61637;47.760;-122.022;2024-02-21T05:42:01;101286.9249;;;7.7;96.0
73422;BME280;61637;47.760;-122.022;2024-02-21T05:44:01;101286.9249;;;7.6;96.0
73422;BME280;61637;47.760;-122.022;2024-02-21T05:46:00;101286.9249;;;7.6;96.0
73422;BME280;61637;47.760;-122.022;2024-02-21T05:48:01;101286.9249;;;7.6;96.0
73422;BME280;61637;47.760;-122.022;2024-02-21T05:50:00;101286.9249;;;7.6;96.0
73422;BME280;61637;47.760;-122.022;2024-02-21T05:52:00;101286.9249;;;7.6;96.0
73422;BME280;61637;47.760;-122.022;2024-02-21T05:54:01;101286.9249;;;7.6;96.0
73422;BME280;61637;47.760;-122.022;2024-02-21T05:56:00;101286.9249;;;7.6;96.0
73422;BME280;61637;47.760;-122.022;2024-02-21T05:58:00;101286.9249;;;7.6;96.0
73422;BME280;61637;47.760;-122.022;2024-02-21T06:00:03;101286.9249;;;7.6;96.0
73422;BME280;61637;47.760;-122.022;2024-02-21T06:02:00;101286.9249;;;7.5;96.0
73422;BME280;61637;47.760;-122.022;2024-02-21T06:04:01;101286.9249;;;7.5;96.0
73422;BME280;61637;47.760;-122.022;2024-02-21T06:06:01;101286.9249;;;7.4;96.0
73422;BME280;61637;47.760;-122.022;2024-02-21T06:08:01;101286.9249;;;7.4;96.0
73422;BME280;61637;47.760;-122.022;2024-02-21T06:10:01;101286.9249;;;7.4;96.0
73422;BME280;61637;47.760;-122.022;2024-02-21T06:12:00;101286.9249;;;7.4;96.0
73422;BME280;61637;47.760;-122.022;2024-02-21T06:14:00;101286.9249;;;7.4;96.0
73422;BME280;61637;47.760;-122.022;2024-02-21T06:16:00;101286.9249;;;7.4;96.0
73422;BME280;61637;47.760;-122.022;2024-02-21T06:18:01;101286.9249;;;7.4;96.0
73422;BME280;61637;47.760;-122.022;2024-02-21T06:20:01;101286.9249;;;7.4;96.0
73422;BME280;61637;47.760;-122.022;2024-02-21T06:22:00;101286.9249;;;7.4;96.0
73422;BME280;61637;47.760;-122.022;2024-02-21T06:24:00;101286.9249;;;7.4;96.0
73422;BME280;61637;47.760;-122.022;2024-02-21T06:26:00;101286.9249;;;7.3;96.0
73422;BME280;61637;47.760;-122.022;2024-02-21T06:28:01;101286.9249;;;7.4;96.0
73422;BME280;61637;47.760;-122.022;2024-02-21T06:30:00;101253.06099999999;;;7.3;96.0
73422;BME280;61637;47.760;-122.022;2024-02-21T06:32:01;101286.9249;;;7.3;96.0
73422;BME280;61637;47.760;-122.022;2024-02-21T06:34:00;101286.9249;;;7.3;96.0
73422;BME280;61637;47.760;-122.022;2024-02-21T06:36:00;101253.06099999999;;;7.3;96.0
73422;BME280;61637;47.760;-122.022;2024-02-21T06:38:00;101286.9249;;;7.3;96.0
73422;BME280;61637;47.760;-122.022;2024-02-21T06:40:01;101286.9249;;;7.3;96.0
73422;BME280;61637;47.760;-122.022;2024-02-21T06:42:00;101253.06099999999;;;7.3;96.0
73422;BME280;61637;47.760;-122.022;2024-02-21T06:44:01;101253.06099999999;;;7.3;96.0
73422;BME280;61637;47.760;-122.022;2024-02-21T06:46:00;101253.06099999999;;;7.3;96.0
73422;BME280;61637;47.760;-122.022;2024-02-21T06:48:00;101253.06099999999;;;7.3;96.0
73422;BME280;61637;47.760;-122.022;2024-02-21T06:50:00;101253.06099999999;;;7.3;96.0
73422;BME280;61637;47.760;-122.022;2024-02-21T06:52:00;101253.06099999999;;;7.3;96.0
73422;BME280;61637;47.760;-122.022;2024-02-21T06:54:00;101253.06099999999;;;7.3;96.0
73422;BME280;61637;47.760;-122.022;2024-02-21T06:56:01;101253.06099999999;;;7.3;96.0
73422;BME280;61637;47.760;-122.022;2024-02-21T06:58:01;101253.06099999999;;;7.3;96.0
73422;BME280;61637;47.760;-122.022;2024-02-21T07:00:00;101253.06099999999;;;7.2;96.0
73422;BME280;61637;47.760;-122.022;2024-02-21T07:02:00;101253.06099999999;;;7.2;96.0
73422;BME280;61637;47.760;-122.022;2024-02-21T07:04:00;101253.06099999999;;;7.2;96.0
73422;BME280;61637;47.760;-122.022;2024-02-21T07:06:01;101219.1971;;;7.2;96.0
73422;BME280;61637;47.760;-122.022;2024-02-21T07:08:01;101219.1971;;;7.2;96.0
73422;BME280;61637;47.760;-122.022;2024-02-21T07:10:01;101219.1971;;;7.2;96.0
73422;BME280;61637;47.760;-122.022;2024-02-21T07:12:01;101219.1971;;;7.2;96.0
73422;BME280;61637;47.760;-122.022;2024-02-21T07:14:00;101219.1971;;;7.2;96.0
73422;BME280;61637;47.760;-122.022;2024-02-21T07:16:00;101219.1971;;;7.1;96.0
73422;BME280;61637;47.760;-122.022;2024-02-21T07:18:00;101219.1971;;;7.1;96.0
73422;BME280;61637;47.760;-122.022;2024-02-21T07:20:01;101219.1971;;;7.1;96.0
73422;BME280;61637;47.760;-122.022;2024-02-21T07:22:01;101219.1971;;;7.1;96.0
73422;BME280;61637;47.760;-122.022;2024-02-21T07:24:00;101219.1971;;;7.1;96.0
73422;BME280;61637;47.760;-122.022;2024-02-21T07:26:00;101219.1971;;;7.1;96.0
73422;BME280;61637;47.760;-122.022;2024-02-21T07:28:00;101219.1971;;;7.1;96.0
73422;BME280;61637;47.760;-122.022;2024-02-21T07:30:00;101219.1971;;;7.1;96.0
73422;BME280;61637;47.760;-122.022;2024-02-21T07:32:01;101219.1971;;;7.1;96.0
73422;BME280;61637;47.760;-122.022;2024-02-21T07:34:01;101219.1971;;;7.2;96.0
73422;BME280;61637;47.760;-122.022;2024-02-21T07:36:01;101219.1971;;;7.2;96.0
73422;BME280;61637;47.760;-122.022;2024-02-21T07:38:00;101219.1971;;;7.2;96.0
73422;BME280;61637;47.760;-122.022;2024-02-21T07:40:00;101185.3332;;;7.2;96.0
73422;BME280;61637;47.760;-122.022;2024-02-21T07:42:01;101185.3332;;;7.2;96.0
73422;BME280;61637;47.760;-122.022;2024-02-21T07:44:00;101185.3332;;;7.2;96.0
73422;BME280;61637;47.760;-122.022;2024-02-21T07:46:01;101185.3332;;;7.2;96.0
73422;BME280;61637;47.760;-122.022;2024-02-21T07:48:00;101185.3332;;;7.2;96.0
73422;BME280;61637;47.760;-122.022;2024-02-21T07:50:01;101185.3332;;;7.2;96.0
73422;BME280;61637;47.760;-122.022;2024-02-21T07:52:01;101185.3332;;;7.2;96.0
73422;BME280;61637;47.760;-122.022;2024-02-21T07:54:00;101185.3332;;;7.2;96.0
73422;BME280;61637;47.760;-122.022;2024-02-21T07:56:00;101185.3332;;;7.2;96.0
73422;BME280;61637;47.760;-122.022;2024-02-21T07:58:01;101185.3332;;;7.2;96.0
73422;BME280;61637;47.760;-122.022;2024-02-21T08:00:01;101185.3332;;;7.2;96.0
73422;BME280;61637;47.760;-122.022;2024-02-21T08:02:00;101185.3332;;;7.2;96.0
73422;BME280;61637;47.760;-122.022;2024-02-21T08:04:00;101185.3332;;;7.2;96.0
73422;BME280;61637;47.760;-122.022;2024-02-21T08:06:01;101185.3332;;;7.1;96.0
73422;BME280;61637;47.760;-122.022;2024-02-21T08:08:00;101219.1971;;;7.1;96.0
73422;BME280;61637;47.760;-122.022;2024-02-21T08:10:01;101185.3332;;;7.1;96.0
73422;BME280;61637;47.760;-122.022;2024-02-21T08:12:00;101185.3332;;;7.1;96.0
73422;BME280;61637;47.760;-122.022;2024-02-21T08:14:00;101219.1971;;;7.1;96.0
73422;BME280;61637;47.760;-122.022;2024-02-21T08:16:00;101219.1971;;;7.1;96.0
73422;BME280;61637;47.760;-122.022;2024-02-21T08:18:00;101219.1971;;;7.1;96.0
73422;BME280;61637;47.760;-122.022;2024-02-21T08:20:01;101219.1971;;;7.1;97.0
73422;BME280;61637;47.760;-122.022;2024-02-21T08:22:00;101185.3332;;;7.1;97.0
73422;BME280;61637;47.760;-122.022;2024-02-21T08:24:00;101185.3332;;;7.1;97.0
73422;BME280;61637;47.760;-122.022;2024-02-21T08:26:02;101185.3332;;;7.0;97.0
73422;BME280;61637;47.760;-122.022;2024-02-21T08:28:01;101185.3332;;;7.1;97.0
73422;BME280;61637;47.760;-122.022;2024-02-21T08:30:00;101185.3332;;;7.1;97.0
73422;BME280;61637;47.760;-122.022;2024-02-21T08:32:01;101185.3332;;;7.1;97.0
73422;BME280;61637;47.760;-122.022;2024-02-21T08:34:00;101185.3332;;;7.1;97.0
73422;BME280;61637;47.760;-122.022;2024-02-21T08:36:00;101185.3332;;;7.1;96.0
73422;BME280;61637;47.760;-122.022;2024-02-21T08:38:01;101185.3332;;;7.0;96.0
73422;BME280;61637;47.760;-122.022;2024-02-21T08:40:01;101219.1971;;;7.0;96.0
73422;BME280;61637;47.760;-122.022;2024-02-21T08:42:00;101185.3332;;;6.9;96.0
73422;BME280;61637;47.760;-122.022;2024-02-21T08:44:01;101219.1971;;;7.0;96.0
73422;BME280;61637;47.760;-122.022;2024-02-21T08:46:01;101185.3332;;;6.9;96.0
73422;BME280;61637;47.760;-122.022;2024-02-21T08:48:00;101185.3332;;;6.9;96.0
73422;BME280;61637;47.760;-122.022;2024-02-21T08:50:01;101185.3332;;;6.9;96.0
73422;BME280;61637;47.760;-122.022;2024-02-21T08:52:01;101185.3332;;;6.9;96.0
73422;BME280;61637;47.760;-122.022;2024-02-21T08:54:01;101185.3332;;;6.9;96.0
73422;BME280;61637;47.760;-122.022;2024-02-21T08:56:01;101185.3332;;;6.9;96.0
73422;BME280;61637;47.760;-122.022;2024-02-21T08:58:00;101185.3332;;;6.9;96.0
73422;BME280;61637;47.760;-122.022;2024-02-21T09:00:01;101185.3332;;;6.9;96.0
73422;BME280;61637;47.760;-122.022;2024-02-21T09:02:00;101185.3332;;;6.8;96.0
73422;BME280;61637;47.760;-122.022;2024-02-21T09:04:01;101185.3332;;;6.9;96.0
73422;BME280;61637;47.760;-122.022;2024-02-21T09:06:00;101185.3332;;;6.8;96.0
73422;BME280;61637;47.760;-122.022;2024-02-21T09:08:00;101185.3332;;;6.8;96.0
73422;BME280;61637;47.760;-122.022;2024-02-21T09:10:00;101185.3332;;;6.8;96.0
73422;BME280;61637;47.760;-122.022;2024-02-21T09:12:00;101185.3332;;;6.8;96.0
73422;BME280;61637;47.760;-122.022;2024-02-21T09:14:00;101185.3332;;;6.8;96.0
73422;BME280;61637;47.760;-122.022;2024-02-21T09:16:01;101185.3332;;;6.8;96.0
73422;BME280;61637;47.760;-122.022;2024-02-21T09:18:00;101185.3332;;;6.8;96.0
73422;BME280;61637;47.760;-122.022;2024-02-21T09:20:00;101185.3332;;;6.7;96.0
73422;BME280;61637;47.760;-122.022;2024-02-21T09:22:00;101185.3332;;;6.7;96.0
73422;BME280;61637;47.760;-122.022;2024-02-21T09:24:00;101185.3332;;;6.7;96.0
73422;BME280;61637;47.760;-122.022;2024-02-21T09:26:00;101185.3332;;;6.7;96.0
73422;BME280;61637;47.760;-122.022;2024-02-21T09:28:01;101185.3332;;;6.7;96.0
73422;BME280;61637;47.760;-122.022;2024-02-21T09:30:00;101185.3332;;;6.7;96.0
73422;BME280;61637;47.760;-122.022;2024-02-21T09:32:01;101185.3332;;;6.7;96.0
73422;BME280;61637;47.760;-122.022;2024-02-21T09:34:00;101185.3332;;;6.6;96.0
73422;BME280;61637;47.760;-122.022;2024-02-21T09:36:01;101185.3332;;;6.6;96.0
73422;BME280;61637;47.760;-122.022;2024-02-21T09:38:01;101185.3332;;;6.6;96.0
73422;BME280;61637;47.760;-122.022;2024-02-21T09:40:01;101185.3332;;;6.6;96.0
73422;BME280;61637;47.760;-122.022;2024-02-21T09:42:03;101185.3332;;;6.6;96.0
73422;BME280;61637;47.760;-122.022;2024-02-21T09:44:00;101185.3332;;;6.6;96.0
73422;BME280;61637;47.760;-122.022;2024-02-21T09:46:00;101185.3332;;;6.6;96.0
73422;BME280;61637;47.760;-122.022;2024-02-21T09:48:06;101185.3332;;;6.6;96.0
73422;BME280;61637;47.760;-122.022;2024-02-21T09:50:01;101185.3332;;;6.6;96.0
73422;BME280;61637;47.760;-122.022;2024-02-21T09:52:01;101185.3332;;;6.5;96.0
73422;BME280;61637;47.760;-122.022;2024-02-21T09:54:01;101185.3332;;;6.6;96.0